createdAt,value
2023-04-05T00:00:43.230Z,0
2023-04-05T00:01:42.798Z,0
2023-04-05T00:02:43.609Z,0
2023-04-05T00:03:44.712Z,0
2023-04-05T00:04:44.957Z,0
2023-04-05T00:05:44.924Z,0
2023-04-05T00:06:44.798Z,0
2023-04-05T00:07:45.495Z,0
2023-04-05T00:08:46.200Z,0
2023-04-05T00:09:46.918Z,0
2023-04-05T00:10:48.009Z,0
2023-04-05T00:11:48.392Z,0
2023-04-05T00:12:48.879Z,0
2023-04-05T00:13:50.073Z,0
2023-04-05T00:14:50.976Z,0
2023-04-05T00:15:51.500Z,0
2023-04-05T00:16:52.487Z,0
2023-04-05T00:17:53.473Z,0
2023-04-05T00:18:53.155Z,0
2023-04-05T00:19:54.036Z,0
2023-04-05T00:20:55.025Z,0
2023-04-05T00:21:55.468Z,0
2023-04-05T00:22:56.269Z,0
2023-04-05T00:23:57.015Z,0
2023-04-05T00:24:57.740Z,0
2023-04-05T00:25:58.655Z,0
2023-04-05T00:26:59.140Z,0
2023-04-05T00:27:59.633Z,0
2023-04-05T00:29:00.555Z,0
2023-04-05T00:30:01.334Z,0
2023-04-05T00:31:02.452Z,0
2023-04-05T00:32:03.615Z,0
2023-04-05T00:33:04.316Z,0
2023-04-05T00:34:04.627Z,0
2023-04-05T00:35:04.716Z,0
2023-04-05T00:36:05.440Z,0
2023-04-05T00:37:06.578Z,0
2023-04-05T00:38:06.072Z,0
2023-04-05T00:39:06.794Z,0
2023-04-05T00:40:07.344Z,0
2023-04-05T00:41:07.800Z,0
2023-04-05T00:42:08.223Z,0
2023-04-05T00:43:08.526Z,0
2023-04-05T00:44:09.010Z,0
2023-04-05T00:45:09.704Z,0
2023-04-05T00:46:10.497Z,0
2023-04-05T00:47:11.265Z,0
2023-04-05T00:48:12.235Z,0
2023-04-05T00:49:13.155Z,0
2023-04-05T00:50:13.679Z,0
2023-04-05T00:51:14.157Z,0
2023-04-05T00:52:15.022Z,0
2023-04-05T00:53:15.720Z,0
2023-04-05T00:54:16.217Z,0
2023-04-05T00:55:17.123Z,0
2023-04-05T00:56:18.042Z,0
2023-04-05T00:57:18.752Z,0
2023-04-05T00:58:19.317Z,0
2023-04-05T00:59:19.773Z,0
2023-04-05T01:00:20.333Z,0
2023-04-05T01:01:20.968Z,0
2023-04-05T01:02:21.866Z,0
2023-04-05T01:03:22.296Z,0
2023-04-05T01:04:23.105Z,0
2023-04-05T01:05:23.386Z,0
2023-04-05T01:06:27.036Z,0
2023-04-05T01:07:25.727Z,0
2023-04-05T01:08:26.430Z,0
2023-04-05T01:09:27.106Z,0
2023-04-05T01:10:28.234Z,0
2023-04-05T01:11:28.751Z,0
2023-04-05T01:12:29.372Z,0
2023-04-05T01:13:30.286Z,0
2023-04-05T01:14:30.562Z,0
2023-04-05T01:15:31.461Z,0
2023-04-05T01:16:32.161Z,0
2023-04-05T01:17:33.130Z,0
2023-04-05T01:18:34.047Z,0
2023-04-05T01:19:34.527Z,0
2023-04-05T01:20:35.016Z,0
2023-04-05T01:21:35.904Z,0
2023-04-05T01:22:35.919Z,0
2023-04-05T01:23:36.479Z,0
2023-04-05T01:24:37.439Z,0
2023-04-05T01:25:38.405Z,0
2023-04-05T01:26:38.305Z,0
2023-04-05T01:27:38.658Z,0
2023-04-05T01:28:39.170Z,0
2023-04-05T01:29:39.848Z,0
2023-04-05T01:30:40.312Z,0
2023-04-05T01:31:41.400Z,0
2023-04-05T01:32:41.553Z,0
2023-04-05T01:33:41.599Z,0
2023-04-05T01:34:41.872Z,0
2023-04-05T01:35:42.234Z,0
2023-04-05T01:36:42.751Z,0
2023-04-05T01:37:43.488Z,0
2023-04-05T01:38:43.980Z,0
2023-04-05T01:39:44.252Z,0
2023-04-05T01:40:45.076Z,0
2023-04-05T01:41:46.010Z,0
2023-04-05T01:42:46.082Z,0
2023-04-05T01:43:46.885Z,0
2023-04-05T01:44:47.249Z,0
2023-04-05T01:45:47.736Z,0
2023-04-05T01:46:48.590Z,0
2023-04-05T01:47:49.449Z,0
2023-04-05T01:48:50.383Z,0
2023-04-05T01:49:51.273Z,0
2023-04-05T01:50:52.523Z,0
2023-04-05T01:51:53.252Z,0
2023-04-05T01:52:53.878Z,0
2023-04-05T01:53:54.626Z,0
2023-04-05T01:54:55.101Z,0
2023-04-05T01:55:56.026Z,0
2023-04-05T01:56:56.748Z,0
2023-04-05T01:57:57.238Z,0
2023-04-05T01:58:58.138Z,0
2023-04-05T01:59:58.696Z,0
2023-04-05T02:00:59.871Z,0
2023-04-05T02:01:59.476Z,0
2023-04-05T02:03:00.769Z,0
2023-04-05T02:04:01.465Z,0
2023-04-05T02:05:01.007Z,0
2023-04-05T02:06:01.839Z,0
2023-04-05T02:07:02.577Z,0
2023-04-05T02:08:02.871Z,0
2023-04-05T02:09:03.957Z,0
2023-04-05T02:10:04.450Z,0
2023-04-05T02:11:05.456Z,0
2023-04-05T02:12:06.588Z,0
2023-04-05T02:13:07.612Z,0
2023-04-05T02:14:07.110Z,0
2023-04-05T02:15:07.873Z,0
2023-04-05T02:16:08.923Z,0
2023-04-05T02:17:09.081Z,0
2023-04-05T02:18:10.338Z,0
2023-04-05T02:19:10.842Z,0
2023-04-05T02:20:11.548Z,0
2023-04-05T02:21:12.234Z,0
2023-04-05T02:22:13.135Z,0
2023-04-05T02:23:13.576Z,0
2023-04-05T02:24:14.074Z,0
2023-04-05T02:25:14.593Z,0
2023-04-05T02:26:15.362Z,0
2023-04-05T02:27:16.075Z,0
2023-04-05T02:28:17.232Z,0
2023-04-05T02:29:16.720Z,0
2023-04-05T02:30:17.445Z,0
2023-04-05T02:31:18.131Z,0
2023-04-05T02:32:19.116Z,0
2023-04-05T02:33:19.523Z,0
2023-04-05T02:34:19.616Z,0
2023-04-05T02:35:20.409Z,0
2023-04-05T02:36:21.198Z,0
2023-04-05T02:37:21.912Z,0
2023-04-05T02:38:22.964Z,0
2023-04-05T02:39:23.450Z,0
2023-04-05T02:40:23.944Z,0
2023-04-05T02:41:25.036Z,0
2023-04-05T02:42:25.561Z,0
2023-04-05T02:43:25.786Z,0
2023-04-05T02:44:26.267Z,0
2023-04-05T02:45:26.582Z,0
2023-04-05T02:46:27.253Z,0
2023-04-05T02:47:28.248Z,0
2023-04-05T02:48:29.375Z,0
2023-04-05T02:49:29.475Z,0
2023-04-05T02:50:29.786Z,0
2023-04-05T02:51:30.305Z,0
2023-04-05T02:52:30.810Z,0
2023-04-05T02:53:31.420Z,0
2023-04-05T02:54:32.104Z,0
2023-04-05T02:55:32.779Z,0
2023-04-05T02:56:33.521Z,0
2023-04-05T02:57:34.252Z,0
2023-04-05T02:58:34.783Z,0
2023-04-05T02:59:36.062Z,0
2023-04-05T03:00:36.970Z,0
2023-04-05T03:01:37.893Z,0
2023-04-05T03:02:38.555Z,0
2023-04-05T03:03:39.908Z,0
2023-04-05T03:04:39.270Z,0
2023-04-05T03:05:39.861Z,0
2023-04-05T03:06:40.655Z,0
2023-04-05T03:07:41.399Z,0
2023-04-05T03:08:42.478Z,0
2023-04-05T03:09:42.764Z,0
2023-04-05T03:10:43.248Z,0
2023-04-05T03:11:45.163Z,0
2023-04-05T03:12:44.797Z,0
2023-04-05T03:13:45.558Z,0
2023-04-05T03:14:46.042Z,0
2023-04-05T03:15:47.077Z,0
2023-04-05T03:16:51.102Z,0
2023-04-05T03:17:47.865Z,0
2023-04-05T03:18:49.026Z,0
2023-04-05T03:19:49.526Z,0
2023-04-05T03:20:50.509Z,0
2023-04-05T03:21:51.020Z,0
2023-04-05T03:22:51.808Z,0
2023-04-05T03:23:52.570Z,0
2023-04-05T03:24:52.912Z,0
2023-04-05T03:25:53.910Z,0
2023-04-05T03:26:53.611Z,0
2023-04-05T03:27:54.320Z,0
2023-04-05T03:28:55.254Z,0
2023-04-05T03:29:56.348Z,0
2023-04-05T03:30:57.309Z,0
2023-04-05T03:31:58.231Z,0
2023-04-05T03:32:58.180Z,0
2023-04-05T03:33:59.191Z,0
2023-04-05T03:34:59.466Z,0
2023-04-05T03:36:00.576Z,0
2023-04-05T03:37:00.540Z,0
2023-04-05T03:38:01.470Z,0
2023-04-05T03:39:01.980Z,0
2023-04-05T03:40:02.460Z,0
2023-04-05T03:41:02.776Z,0
2023-04-05T03:42:03.707Z,0
2023-04-05T03:43:04.706Z,0
2023-04-05T03:44:05.072Z,0
2023-04-05T03:45:05.558Z,0
2023-04-05T03:46:06.053Z,0
2023-04-05T03:47:06.561Z,0
2023-04-05T03:48:07.817Z,0
2023-04-05T03:49:07.793Z,0
2023-04-05T03:50:08.523Z,0
2023-04-05T03:51:09.247Z,0
2023-04-05T03:52:09.753Z,0
2023-04-05T03:53:10.462Z,0
2023-04-05T03:54:11.100Z,0
2023-04-05T03:55:11.435Z,0
2023-04-05T03:56:12.027Z,0
2023-04-05T03:57:12.752Z,0
2023-04-05T03:58:13.277Z,0
2023-04-05T03:59:14.152Z,0
2023-04-05T04:00:15.137Z,0
2023-04-05T04:01:15.035Z,0
2023-04-05T04:02:15.487Z,0
2023-04-05T04:03:16.288Z,0
2023-04-05T04:04:16.534Z,0
2023-04-05T04:05:17.962Z,0
2023-04-05T04:06:19.499Z,0
2023-04-05T04:07:18.154Z,0
2023-04-05T04:08:18.626Z,0
2023-04-05T04:09:18.926Z,0
2023-04-05T04:10:19.665Z,0
2023-04-05T04:11:20.350Z,0
2023-04-05T04:12:21.273Z,0
2023-04-05T04:13:22.605Z,0
2023-04-05T04:14:21.835Z,0
2023-04-05T04:15:22.342Z,0
2023-04-05T04:16:23.263Z,0
2023-04-05T04:17:22.978Z,0
2023-04-05T04:18:23.320Z,0
2023-04-05T04:19:24.443Z,0
2023-04-05T04:20:24.736Z,0
2023-04-05T04:21:25.231Z,0
2023-04-05T04:22:25.730Z,0
2023-04-05T04:23:26.481Z,0
2023-04-05T04:24:26.802Z,0
2023-04-05T04:25:27.309Z,0
2023-04-05T04:26:28.396Z,0
2023-04-05T04:27:28.915Z,0
2023-04-05T04:28:29.645Z,0
2023-04-05T04:29:30.167Z,0
2023-04-05T04:30:30.262Z,0
2023-04-05T04:31:31.163Z,0
2023-04-05T04:32:31.726Z,0
2023-04-05T04:33:32.492Z,0
2023-04-05T04:34:33.307Z,0
2023-04-05T04:35:33.914Z,0
2023-04-05T04:36:35.244Z,0
2023-04-05T04:37:34.714Z,0
2023-04-05T04:38:35.424Z,0
2023-04-05T04:39:37.847Z,0
2023-04-05T04:40:36.663Z,0
2023-04-05T04:41:37.583Z,0
2023-04-05T04:42:37.945Z,0
2023-04-05T04:43:38.854Z,0
2023-04-05T04:44:39.320Z,0
2023-04-05T04:45:40.781Z,0
2023-04-05T04:46:40.371Z,0
2023-04-05T04:47:41.129Z,0
2023-04-05T04:48:41.890Z,0
2023-04-05T04:49:42.605Z,0
2023-04-05T04:50:43.133Z,5.63
2023-04-05T04:51:43.426Z,5.63
2023-04-05T04:52:43.728Z,5.63
2023-04-05T04:53:44.612Z,5.63
2023-04-05T04:54:45.342Z,5.63
2023-04-05T04:55:45.863Z,5.63
2023-04-05T04:56:46.159Z,5.63
2023-04-05T04:57:47.094Z,5.63
2023-04-05T04:58:47.839Z,5.63
2023-04-05T04:59:48.637Z,11.25
2023-04-05T05:00:50.325Z,11.25
2023-04-05T05:01:49.431Z,11.25
2023-04-05T05:02:50.403Z,11.25
2023-04-05T05:03:51.021Z,11.25
2023-04-05T05:04:52.200Z,11.25
2023-04-05T05:05:52.745Z,11.25
2023-04-05T05:06:53.429Z,11.25
2023-04-05T05:07:53.956Z,11.25
2023-04-05T05:08:54.471Z,16.88
2023-04-05T05:09:55.382Z,16.88
2023-04-05T05:10:56.012Z,16.88
2023-04-05T05:11:56.557Z,16.88
2023-04-05T05:12:57.469Z,16.88
2023-04-05T05:14:04.040Z,16.88
2023-04-05T05:15:59.078Z,16.88
2023-04-05T05:16:59.624Z,22.5
2023-04-05T05:18:00.764Z,22.5
2023-04-05T05:19:00.728Z,22.5
2023-04-05T05:20:01.921Z,22.5
2023-04-05T05:21:02.229Z,22.5
2023-04-05T05:22:02.928Z,22.5
2023-04-05T05:23:03.825Z,28.13
2023-04-05T05:24:04.322Z,28.13
2023-04-05T05:25:05.345Z,28.13
2023-04-05T05:26:06.236Z,28.13
2023-04-05T05:27:06.936Z,28.13
2023-04-05T05:28:07.941Z,33.75
2023-04-05T05:29:07.656Z,33.75
2023-04-05T05:30:08.556Z,33.75
2023-04-05T05:31:09.412Z,33.75
2023-04-05T05:32:09.746Z,39.38
2023-04-05T05:33:10.278Z,39.38
2023-04-05T05:34:11.212Z,39.38
2023-04-05T05:35:11.819Z,39.38
2023-04-05T05:36:13.090Z,39.38
2023-04-05T05:37:13.633Z,45
2023-04-05T05:38:16.720Z,45
2023-04-05T05:39:14.396Z,45
2023-04-05T05:40:15.519Z,45
2023-04-05T05:41:15.827Z,50.63
2023-04-05T05:42:16.744Z,50.63
2023-04-05T05:43:17.656Z,50.63
2023-04-05T05:44:18.277Z,50.63
2023-04-05T05:45:18.685Z,56.25
2023-04-05T05:46:20.729Z,56.25
2023-04-05T05:47:19.907Z,56.25
2023-04-05T05:48:20.557Z,56.25
2023-04-05T05:49:21.114Z,56.25
2023-04-05T05:50:22.275Z,56.25
2023-04-05T05:51:22.162Z,56.25
2023-04-05T05:52:22.778Z,56.25
2023-04-05T05:53:23.072Z,61.88
2023-04-05T05:54:23.771Z,61.88
2023-04-05T05:55:24.379Z,61.88
2023-04-05T05:56:24.924Z,61.88
2023-04-05T05:57:25.890Z,67.5
2023-04-05T05:58:26.634Z,67.5
2023-04-05T05:59:27.758Z,67.5
2023-04-05T06:00:28.194Z,67.5
2023-04-05T06:01:28.538Z,73.13
2023-04-05T06:02:29.145Z,73.13
2023-04-05T06:03:30.877Z,73.13
2023-04-05T06:04:31.158Z,73.13
2023-04-05T06:05:30.642Z,78.75
2023-04-05T06:06:31.362Z,78.75
2023-04-05T06:07:32.067Z,78.75
2023-04-05T06:08:32.979Z,84.38
2023-04-05T06:09:33.487Z,84.38
2023-04-05T06:10:34.199Z,84.38
2023-04-05T06:11:37.088Z,84.38
2023-04-05T06:12:39.269Z,90
2023-04-05T06:13:36.304Z,90
2023-04-05T06:14:37.233Z,90
2023-04-05T06:15:38.074Z,90
2023-04-05T06:16:39.067Z,90
2023-04-05T06:17:38.792Z,95.63
2023-04-05T06:18:39.301Z,95.63
2023-04-05T06:19:39.811Z,95.63
2023-04-05T06:20:41.183Z,95.63
2023-04-05T06:21:40.927Z,95.63
2023-04-05T06:22:41.450Z,129.38
2023-04-05T06:23:41.982Z,225
2023-04-05T06:24:42.902Z,309.38
2023-04-05T06:25:43.688Z,337.5
2023-04-05T06:26:44.955Z,337.5
2023-04-05T06:27:44.881Z,365.63
2023-04-05T06:28:45.213Z,348.75
2023-04-05T06:29:45.641Z,309.38
2023-04-05T06:30:46.461Z,258.75
2023-04-05T06:31:47.214Z,286.88
2023-04-05T06:32:47.740Z,303.75
2023-04-05T06:33:48.251Z,281.25
2023-04-05T06:34:48.790Z,270
2023-04-05T06:35:49.717Z,270
2023-04-05T06:36:50.788Z,309.38
2023-04-05T06:37:51.486Z,348.75
2023-04-05T06:38:52.165Z,382.5
2023-04-05T06:39:53.078Z,388.13
2023-04-05T06:40:54.435Z,371.25
2023-04-05T06:41:54.556Z,331.88
2023-04-05T06:42:54.490Z,320.63
2023-04-05T06:43:55.008Z,331.88
2023-04-05T06:44:55.831Z,343.13
2023-04-05T06:45:56.025Z,343.13
2023-04-05T06:46:56.530Z,343.13
2023-04-05T06:47:57.761Z,298.13
2023-04-05T06:48:57.795Z,292.5
2023-04-05T06:49:58.916Z,343.13
2023-04-05T06:50:59.374Z,326.25
2023-04-05T06:51:59.263Z,326.25
2023-04-05T06:52:59.928Z,376.88
2023-04-05T06:54:00.919Z,360
2023-04-05T06:55:01.617Z,371.25
2023-04-05T06:56:02.038Z,393.75
2023-04-05T06:57:03.395Z,348.75
2023-04-05T06:58:02.984Z,331.88
2023-04-05T06:59:03.719Z,348.75
2023-04-05T07:00:04.674Z,303.75
2023-04-05T07:01:05.433Z,286.88
2023-04-05T07:02:06.650Z,303.75
2023-04-05T07:03:06.791Z,309.38
2023-04-05T07:04:06.835Z,286.88
2023-04-05T07:05:07.930Z,343.13
2023-04-05T07:06:08.783Z,376.88
2023-04-05T07:07:09.102Z,388.13
2023-04-05T07:08:09.644Z,438.75
2023-04-05T07:09:10.485Z,450
2023-04-05T07:10:11.356Z,438.75
2023-04-05T07:11:12.109Z,427.5
2023-04-05T07:12:13.038Z,461.25
2023-04-05T07:13:13.341Z,556.88
2023-04-05T07:14:14.279Z,624.38
2023-04-05T07:15:15.500Z,646.88
2023-04-05T07:16:15.901Z,776.25
2023-04-05T07:17:15.481Z,950.63
2023-04-05T07:18:16.122Z,849.38
2023-04-05T07:19:17.092Z,568.13
2023-04-05T07:20:17.687Z,405
2023-04-05T07:21:18.996Z,247.5
2023-04-05T07:22:18.927Z,281.25
2023-04-05T07:23:18.824Z,500.63
2023-04-05T07:24:19.623Z,793.13
2023-04-05T07:25:19.769Z,646.88
2023-04-05T07:26:20.250Z,399.38
2023-04-05T07:27:21.193Z,253.13
2023-04-05T07:28:22.353Z,213.75
2023-04-05T07:29:23.391Z,219.38
2023-04-05T07:30:24.014Z,236.25
2023-04-05T07:31:23.511Z,286.88
2023-04-05T07:32:24.293Z,393.75
2023-04-05T07:33:25.069Z,438.75
2023-04-05T07:34:25.821Z,416.25
2023-04-05T07:35:26.226Z,376.88
2023-04-05T07:36:27.293Z,388.13
2023-04-05T07:37:28.307Z,416.25
2023-04-05T07:38:28.029Z,421.88
2023-04-05T07:39:28.547Z,427.5
2023-04-05T07:40:29.283Z,427.5
2023-04-05T07:41:30.419Z,382.5
2023-04-05T07:42:30.327Z,376.88
2023-04-05T07:43:30.889Z,354.38
2023-04-05T07:44:32.014Z,388.13
2023-04-05T07:45:32.966Z,416.25
2023-04-05T07:46:33.707Z,416.25
2023-04-05T07:47:33.709Z,523.13
2023-04-05T07:48:33.836Z,545.63
2023-04-05T07:49:34.577Z,511.88
2023-04-05T07:50:35.873Z,438.75
2023-04-05T07:51:35.858Z,438.75
2023-04-05T07:52:36.774Z,416.25
2023-04-05T07:53:36.895Z,399.38
2023-04-05T07:54:36.813Z,416.25
2023-04-05T07:55:37.547Z,393.75
2023-04-05T07:56:38.564Z,376.88
2023-04-05T07:57:38.514Z,360
2023-04-05T07:58:39.411Z,461.25
2023-04-05T07:59:40.630Z,495
2023-04-05T08:00:40.943Z,450
2023-04-05T08:01:40.739Z,438.75
2023-04-05T08:02:41.844Z,376.88
2023-04-05T08:03:42.608Z,348.75
2023-04-05T08:04:42.657Z,371.25
2023-04-05T08:05:43.815Z,360
2023-04-05T08:06:44.650Z,354.38
2023-04-05T08:07:44.386Z,444.38
2023-04-05T08:08:45.323Z,495
2023-04-05T08:09:46.219Z,556.88
2023-04-05T08:10:47.166Z,652.5
2023-04-05T08:11:48.120Z,933.75
2023-04-05T08:12:50.083Z,1164.38
2023-04-05T08:13:48.793Z,1282.5
2023-04-05T08:14:49.533Z,1485
2023-04-05T08:15:50.715Z,1366.88
2023-04-05T08:16:50.514Z,1243.13
2023-04-05T08:17:51.820Z,1271.25
2023-04-05T08:18:51.347Z,1158.75
2023-04-05T08:19:52.079Z,961.88
2023-04-05T08:20:53.450Z,1226.25
2023-04-05T08:21:53.474Z,1175.63
2023-04-05T08:22:54.413Z,815.63
2023-04-05T08:23:55.342Z,686.25
2023-04-05T08:24:55.214Z,613.13
2023-04-05T08:25:59.095Z,776.25
2023-04-05T08:26:56.616Z,871.88
2023-04-05T08:27:57.546Z,849.38
2023-04-05T08:28:58.100Z,860.63
2023-04-05T08:29:58.874Z,933.75
2023-04-05T08:31:00.311Z,843.75
2023-04-05T08:32:00.335Z,832.5
2023-04-05T08:33:00.225Z,765
2023-04-05T08:34:01.234Z,680.63
2023-04-05T08:35:00.935Z,720
2023-04-05T08:36:01.875Z,708.75
2023-04-05T08:37:05.118Z,652.5
2023-04-05T08:38:02.802Z,511.88
2023-04-05T08:39:03.325Z,405
2023-04-05T08:40:04.912Z,495
2023-04-05T08:41:05.049Z,742.5
2023-04-05T08:42:04.967Z,956.25
2023-04-05T08:43:05.722Z,630
2023-04-05T08:44:06.444Z,343.13
2023-04-05T08:45:07.897Z,427.5
2023-04-05T08:46:08.093Z,416.25
2023-04-05T08:47:08.502Z,399.38
2023-04-05T08:48:09.276Z,438.75
2023-04-05T08:49:10.113Z,438.75
2023-04-05T08:50:10.832Z,354.38
2023-04-05T08:51:11.895Z,438.75
2023-04-05T08:52:12.650Z,635.63
2023-04-05T08:53:13.155Z,607.5
2023-04-05T08:54:14.054Z,585
2023-04-05T08:55:15.178Z,568.13
2023-04-05T08:56:14.917Z,528.75
2023-04-05T08:57:15.854Z,466.88
2023-04-05T08:58:16.789Z,343.13
2023-04-05T08:59:17.733Z,320.63
2023-04-05T09:00:18.740Z,388.13
2023-04-05T09:01:19.702Z,438.75
2023-04-05T09:02:19.805Z,455.63
2023-04-05T09:03:21.056Z,393.75
2023-04-05T09:04:21.054Z,444.38
2023-04-05T09:05:21.189Z,483.75
2023-04-05T09:06:20.990Z,416.25
2023-04-05T09:07:21.597Z,405
2023-04-05T09:08:22.509Z,500.63
2023-04-05T09:09:23.414Z,495
2023-04-05T09:10:24.338Z,427.5
2023-04-05T09:11:25.244Z,410.63
2023-04-05T09:12:26.631Z,450
2023-04-05T09:13:26.195Z,478.13
2023-04-05T09:14:27.316Z,478.13
2023-04-05T09:15:27.863Z,450
2023-04-05T09:16:29.055Z,450
2023-04-05T09:17:29.137Z,461.25
2023-04-05T09:18:44.229Z,478.13
2023-04-05T09:20:30.797Z,506.25
2023-04-05T09:21:31.522Z,500.63
2023-04-05T09:22:32.653Z,466.88
2023-04-05T09:23:32.559Z,534.38
2023-04-05T09:24:33.262Z,590.63
2023-04-05T09:25:34.175Z,545.63
2023-04-05T09:26:37.621Z,534.38
2023-04-05T09:28:37.015Z,573.75
2023-04-05T09:29:37.783Z,472.5
2023-04-05T09:30:38.680Z,551.25
2023-04-05T09:31:39.290Z,331.88
2023-04-05T09:32:39.272Z,236.25
2023-04-05T09:33:40.186Z,225
2023-04-05T09:34:40.084Z,208.13
2023-04-05T09:35:40.972Z,208.13
2023-04-05T09:36:41.910Z,202.5
2023-04-05T09:37:43.089Z,202.5
2023-04-05T09:38:42.580Z,241.88
2023-04-05T09:39:43.832Z,208.13
2023-04-05T09:40:44.481Z,202.5
2023-04-05T09:41:44.785Z,202.5
2023-04-05T09:42:45.752Z,196.88
2023-04-05T09:43:45.674Z,180
2023-04-05T09:44:46.191Z,174.38
2023-04-05T09:45:47.145Z,196.88
2023-04-05T09:46:49.763Z,196.88
2023-04-05T09:47:49.850Z,202.5
2023-04-05T09:48:49.094Z,219.38
2023-04-05T09:49:50.208Z,376.88
2023-04-05T09:50:50.704Z,371.25
2023-04-05T09:51:50.729Z,348.75
2023-04-05T09:52:51.485Z,247.5
2023-04-05T09:53:52.377Z,517.5
2023-04-05T09:54:52.891Z,495
2023-04-05T09:55:53.690Z,528.75
2023-04-05T09:56:54.595Z,540
2023-04-05T09:57:55.179Z,545.63
2023-04-05T09:58:56.396Z,506.25
2023-04-05T09:59:56.144Z,455.63
2023-04-05T10:01:06.450Z,506.25
2023-04-05T10:01:58.394Z,534.38
2023-04-05T10:02:59.038Z,551.25
2023-04-05T10:04:00.143Z,534.38
2023-04-05T10:04:59.260Z,506.25
2023-04-05T10:05:59.983Z,511.88
2023-04-05T10:07:01.357Z,517.5
2023-04-05T10:08:01.046Z,495
2023-04-05T10:09:01.395Z,500.63
2023-04-05T10:10:02.364Z,534.38
2023-04-05T10:11:03.114Z,562.5
2023-04-05T10:12:03.824Z,585
2023-04-05T10:13:04.792Z,601.88
2023-04-05T10:14:05.927Z,585
2023-04-05T10:15:06.102Z,596.25
2023-04-05T10:16:07.375Z,601.88
2023-04-05T10:17:08.135Z,613.13
2023-04-05T10:18:09.261Z,630
2023-04-05T10:19:11.808Z,663.75
2023-04-05T10:20:11.121Z,675
2023-04-05T10:21:11.350Z,697.5
2023-04-05T10:22:12.271Z,765
2023-04-05T10:23:12.435Z,855
2023-04-05T10:24:11.963Z,900
2023-04-05T10:25:12.738Z,888.75
2023-04-05T10:26:13.141Z,888.75
2023-04-05T10:27:13.760Z,877.5
2023-04-05T10:28:14.934Z,888.75
2023-04-05T10:29:15.688Z,883.13
2023-04-05T10:30:16.770Z,765
2023-04-05T10:31:30.791Z,258.75
2023-04-05T10:32:18.376Z,230.63
2023-04-05T10:33:19.122Z,275.63
2023-04-05T10:34:19.017Z,298.13
2023-04-05T10:35:19.817Z,877.5
2023-04-05T10:36:21.057Z,568.13
2023-04-05T10:37:20.939Z,883.13
2023-04-05T10:38:21.981Z,585
2023-04-05T10:39:23.001Z,900
2023-04-05T10:40:23.225Z,883.13
2023-04-05T10:41:23.548Z,843.75
2023-04-05T10:42:24.648Z,838.13
2023-04-05T10:43:25.419Z,798.75
2023-04-05T10:44:39.438Z,753.75
2023-04-05T10:46:27.970Z,691.88
2023-04-05T10:47:29.232Z,675
2023-04-05T10:49:29.493Z,646.88
2023-04-05T10:50:30.096Z,635.63
2023-04-05T10:51:30.934Z,590.63
2023-04-05T10:52:31.934Z,540
2023-04-05T10:53:32.842Z,247.5
2023-04-05T10:54:33.637Z,236.25
2023-04-05T10:55:34.484Z,213.75
2023-04-05T10:56:35.325Z,196.88
2023-04-05T10:57:36.449Z,219.38
2023-04-05T10:58:36.657Z,286.88
2023-04-05T10:59:37.764Z,770.63
2023-04-05T11:00:37.960Z,798.75
2023-04-05T11:01:39.525Z,804.38
2023-04-05T11:02:39.834Z,815.63
2023-04-05T11:03:40.990Z,821.25
2023-04-05T11:04:42.044Z,821.25
2023-04-05T11:05:41.132Z,815.63
2023-04-05T11:06:42.099Z,821.25
2023-04-05T11:07:43.071Z,832.5
2023-04-05T11:08:43.418Z,832.5
2023-04-05T11:09:44.142Z,821.25
2023-04-05T11:10:45.734Z,815.63
2023-04-05T11:11:45.031Z,826.88
2023-04-05T11:12:45.736Z,804.38
2023-04-05T11:13:47.855Z,804.38
2023-04-05T11:14:46.781Z,787.5
2023-04-05T11:15:47.522Z,691.88
2023-04-05T11:16:48.866Z,798.75
2023-04-05T11:17:49.000Z,798.75
2023-04-05T11:18:48.538Z,787.5
2023-04-05T11:19:49.238Z,781.88
2023-04-05T11:20:50.230Z,776.25
2023-04-05T11:21:51.143Z,776.25
2023-04-05T11:22:51.662Z,753.75
2023-04-05T11:23:52.393Z,753.75
2023-04-05T11:24:53.306Z,748.13
2023-04-05T11:25:53.824Z,748.13
2023-04-05T11:26:54.413Z,742.5
2023-04-05T11:27:55.175Z,759.38
2023-04-05T11:28:55.989Z,736.88
2023-04-05T11:29:55.915Z,742.5
2023-04-05T11:30:57.328Z,736.88
2023-04-05T11:31:57.332Z,731.25
2023-04-05T11:32:58.346Z,731.25
2023-04-05T11:34:09.067Z,731.25
2023-04-05T11:34:59.665Z,736.88
2023-04-05T11:36:01.112Z,731.25
2023-04-05T11:37:00.404Z,731.25
2023-04-05T11:38:01.360Z,725.63
2023-04-05T11:39:02.198Z,731.25
2023-04-05T11:40:02.749Z,736.88
2023-04-05T11:41:03.656Z,714.38
2023-04-05T11:42:04.363Z,686.25
2023-04-05T11:43:05.007Z,646.88
2023-04-05T11:44:05.728Z,680.63
2023-04-05T11:45:06.255Z,703.13
2023-04-05T11:46:07.100Z,590.63
2023-04-05T11:47:08.419Z,292.5
2023-04-05T11:48:08.216Z,691.88
2023-04-05T11:49:08.483Z,618.75
2023-04-05T11:50:09.205Z,680.63
2023-04-05T11:51:09.952Z,669.38
2023-04-05T11:52:10.451Z,658.13
2023-04-05T11:53:11.567Z,658.13
2023-04-05T11:54:11.535Z,652.5
2023-04-05T11:55:14.620Z,641.25
2023-04-05T11:56:13.360Z,641.25
2023-04-05T11:57:13.885Z,635.63
2023-04-05T11:58:14.586Z,624.38
2023-04-05T11:59:15.417Z,624.38
2023-04-05T12:00:15.961Z,607.5
2023-04-05T12:01:16.711Z,607.5
2023-04-05T12:02:17.636Z,601.88
2023-04-05T12:03:18.786Z,596.25
2023-04-05T12:04:18.882Z,590.63
2023-04-05T12:05:19.859Z,579.38
2023-04-05T12:06:20.627Z,573.75
2023-04-05T12:07:21.353Z,579.38
2023-04-05T12:08:21.915Z,573.75
2023-04-05T12:09:23.178Z,568.13
2023-04-05T12:10:23.935Z,562.5
2023-04-05T12:11:24.453Z,551.25
2023-04-05T12:12:24.761Z,551.25
2023-04-05T12:13:25.529Z,545.63
2023-04-05T12:14:26.681Z,528.75
2023-04-05T12:15:27.543Z,534.38
2023-04-05T12:16:28.679Z,517.5
2023-04-05T12:17:28.459Z,506.25
2023-04-05T12:18:29.452Z,495
2023-04-05T12:19:30.064Z,483.75
2023-04-05T12:20:31.002Z,483.75
2023-04-05T12:21:31.723Z,483.75
2023-04-05T12:22:32.502Z,483.75
2023-04-05T12:23:33.248Z,478.13
2023-04-05T12:24:34.192Z,478.13
2023-04-05T12:25:34.975Z,478.13
2023-04-05T12:26:35.879Z,466.88
2023-04-05T12:27:36.826Z,466.88
2023-04-05T12:28:37.753Z,461.25
2023-04-05T12:29:38.268Z,455.63
2023-04-05T12:30:39.370Z,455.63
2023-04-05T12:31:40.301Z,450
2023-04-05T12:32:40.203Z,450
2023-04-05T12:33:40.945Z,450
2023-04-05T12:34:41.846Z,450
2023-04-05T12:35:42.755Z,450
2023-04-05T12:36:42.963Z,444.38
2023-04-05T12:37:43.673Z,444.38
2023-04-05T12:38:44.764Z,444.38
2023-04-05T12:39:45.078Z,444.38
2023-04-05T12:40:44.772Z,438.75
2023-04-05T12:41:45.932Z,444.38
2023-04-05T12:42:46.898Z,444.38
2023-04-05T12:43:46.950Z,444.38
2023-04-05T12:44:47.481Z,450
2023-04-05T12:45:49.302Z,461.25
2023-04-05T12:46:49.251Z,466.88
2023-04-05T12:47:49.950Z,461.25
2023-04-05T12:48:50.898Z,461.25
2023-04-05T12:49:51.136Z,455.63
2023-04-05T12:50:51.910Z,455.63
2023-04-05T12:51:52.768Z,444.38
2023-04-05T12:52:53.083Z,427.5
2023-04-05T12:53:54.065Z,421.88
2023-04-05T12:54:54.819Z,405
2023-04-05T12:55:56.313Z,405
2023-04-05T12:56:56.092Z,399.38
2023-04-05T12:57:57.014Z,393.75
2023-04-05T12:58:57.055Z,393.75
2023-04-05T12:59:58.020Z,388.13
2023-04-05T13:00:59.365Z,376.88
2023-04-05T13:01:59.568Z,376.88
2023-04-05T13:03:00.995Z,371.25
2023-04-05T13:04:22.048Z,371.25
2023-04-05T13:05:01.780Z,360
2023-04-05T13:06:02.312Z,348.75
2023-04-05T13:07:03.216Z,354.38
2023-04-05T13:08:03.929Z,354.38
2023-04-05T13:09:04.441Z,348.75
2023-04-05T13:10:05.103Z,354.38
2023-04-05T13:11:09.136Z,343.13
2023-04-05T13:12:06.075Z,343.13
2023-04-05T13:13:06.854Z,348.75
2023-04-05T13:14:07.794Z,343.13
2023-04-05T13:15:08.779Z,337.5
2023-04-05T13:16:09.568Z,337.5
2023-04-05T13:17:10.118Z,343.13
2023-04-05T13:18:11.089Z,343.13
2023-04-05T13:19:11.828Z,337.5
2023-04-05T13:20:12.690Z,343.13
2023-04-05T13:21:13.733Z,331.88
2023-04-05T13:22:14.051Z,337.5
2023-04-05T13:23:14.549Z,343.13
2023-04-05T13:24:18.078Z,348.75
2023-04-05T13:25:16.049Z,337.5
2023-04-05T13:26:16.981Z,331.88
2023-04-05T13:27:17.733Z,326.25
2023-04-05T13:28:18.099Z,326.25
2023-04-05T13:29:18.650Z,326.25
2023-04-05T13:30:19.085Z,337.5
2023-04-05T13:31:21.361Z,343.13
2023-04-05T13:32:20.325Z,343.13
2023-04-05T13:33:21.529Z,337.5
2023-04-05T13:34:21.475Z,331.88
2023-04-05T13:35:22.331Z,331.88
2023-04-05T13:36:23.796Z,326.25
2023-04-05T13:37:23.507Z,326.25